Time;durP1;ratioP1;P1;durP2;ratioP2;P2;SDS_P1;SDS_P2;PMS_P1;PMS_P2;Temp;Humidity;BMP_temperature;BMP_pressure;BME280_temperature;BME280_humidity;BME280_pressure;Samples;Min_cycle;Max_cycle;Signal;HPM_P1;HPM_P2
2022/03/21 00:00:53;;;;;;;21.20;11.60;;;;;;;;;;5059931;28;20040;-69
2022/03/21 00:03:19;;;;;;;19.47;11.00;;;;;;;;;;5060031;28;20024;-69
2022/03/21 00:05:45;;;;;;;21.70;11.57;;;;;;;;;;5059606;28;20048;-69
2022/03/21 00:08:11;;;;;;;19.40;11.30;;;;;;;;;;5060463;28;20440;-69
2022/03/21 00:10:37;;;;;;;21.80;12.10;;;;;;;;;;5062608;28;20500;-69
2022/03/21 00:13:07;;;;;;;22.40;11.13;;;;;;;;;;5062959;28;20048;-69
2022/03/21 00:15:32;;;;;;;22.63;11.47;;;;;;;;;;5060351;28;20027;-69
2022/03/21 00:17:58;;;;;;;23.37;11.70;;;;;;;;;;5059900;28;20058;-69
2022/03/21 00:20:23;;;;;;;18.23;10.83;;;;;;;;;;5059612;28;20070;-69
2022/03/21 00:22:50;;;;;;;23.97;11.37;;;;;;;;;;5060005;28;20113;-69
2022/03/21 00:25:15;;;;;;;20.27;11.80;;;;;;;;;;5059935;28;20042;-69
2022/03/21 00:27:41;;;;;;;22.43;12.33;;;;;;;;;;5056998;28;20021;-69
2022/03/21 00:30:07;;;;;;;22.00;12.13;;;;;;;;;;5057461;28;20025;-69
2022/03/21 00:32:32;;;;;;;24.13;12.70;;;;;;;;;;5061033;28;20485;-69
2022/03/21 00:34:57;;;;;;;23.00;12.60;;;;;;;;;;5059527;28;20028;-68
2022/03/21 00:37:23;;;;;;;22.40;11.67;;;;;;;;;;5059656;28;20024;-69
2022/03/21 00:39:49;;;;;;;19.73;11.87;;;;;;;;;;5058975;28;20020;-68
2022/03/21 00:42:14;;;;;;;21.80;12.13;;;;;;;;;;5059934;28;20412;-68
2022/03/21 00:44:39;;;;;;;23.10;12.40;;;;;;;;;;5056972;28;20028;-68
2022/03/21 00:47:05;;;;;;;23.90;12.50;;;;;;;;;;5058706;28;20021;-68
2022/03/21 00:49:30;;;;;;;20.03;11.93;;;;;;;;;;5056156;28;20029;-69
2022/03/21 00:51:55;;;;;;;21.10;12.33;;;;;;;;;;5059655;28;20025;-69
2022/03/21 00:54:21;;;;;;;19.93;11.80;;;;;;;;;;5059069;28;20112;-69
2022/03/21 00:56:46;;;;;;;20.70;11.43;;;;;;;;;;5060873;28;20041;-68
2022/03/21 00:59:11;;;;;;;24.27;12.83;;;;;;;;;;5063681;28;20043;-69
2022/03/21 01:01:36;;;;;;;20.67;12.07;;;;;;;;;;5063866;28;20194;-68
2022/03/21 01:04:02;;;;;;;20.57;12.17;;;;;;;;;;5062931;28;20093;-69
2022/03/21 01:06:27;;;;;;;23.40;12.50;;;;;;;;;;5063045;28;20052;-69
2022/03/21 01:08:52;;;;;;;24.00;12.90;;;;;;;;;;5062639;28;20070;-68
2022/03/21 01:11:17;;;;;;;20.90;11.60;;;;;;;;;;5062411;28;20025;-68
2022/03/21 01:13:43;;;;;;;22.67;12.17;;;;;;;;;;5062774;28;20032;-68
2022/03/21 01:16:09;;;;;;;22.60;12.87;;;;;;;;;;5061462;28;20405;-69
2022/03/21 01:18:34;;;;;;;21.63;12.17;;;;;;;;;;5058976;28;20076;-68
2022/03/21 01:20:59;;;;;;;23.97;12.10;;;;;;;;;;5061472;28;20491;-68
2022/03/21 01:23:24;;;;;;;22.43;12.30;;;;;;;;;;5063017;28;20101;-69
2022/03/21 01:25:50;;;;;;;22.03;11.90;;;;;;;;;;5062450;28;20033;-69
2022/03/21 01:28:15;;;;;;;22.50;12.27;;;;;;;;;;5063012;28;20096;-69
2022/03/21 01:30:40;;;;;;;23.23;12.47;;;;;;;;;;5061760;28;20725;-69
2022/03/21 01:33:07;;;;;;;23.13;12.03;;;;;;;;;;5063069;28;20021;-69
2022/03/21 01:35:32;;;;;;;24.60;12.70;;;;;;;;;;5061911;28;20493;-69
2022/03/21 01:37:58;;;;;;;22.37;12.57;;;;;;;;;;5062785;28;20095;-69
2022/03/21 01:40:23;;;;;;;23.20;12.00;;;;;;;;;;5043986;28;20393;-69
2022/03/21 01:42:49;;;;;;;25.77;13.03;;;;;;;;;;5065909;28;20720;-69
2022/03/21 01:45:14;;;;;;;26.00;13.20;;;;;;;;;;5062063;28;20493;-69
2022/03/21 01:47:41;;;;;;;21.53;12.50;;;;;;;;;;5062183;28;20033;-69
2022/03/21 01:50:06;;;;;;;26.03;12.23;;;;;;;;;;5061463;28;20479;-69
2022/03/21 01:52:32;;;;;;;28.17;12.97;;;;;;;;;;5058215;28;20040;-69
2022/03/21 01:57:42;;;;;;;26.17;12.33;;;;;;;;;;5061765;28;20238;-69
2022/03/21 02:00:08;;;;;;;22.33;12.27;;;;;;;;;;5061830;28;20036;-69
2022/03/21 02:02:33;;;;;;;24.93;12.93;;;;;;;;;;5060256;28;20044;-68
2022/03/21 02:04:59;;;;;;;22.20;11.80;;;;;;;;;;5062067;28;20028;-68
2022/03/21 02:07:25;;;;;;;21.47;12.13;;;;;;;;;;5065589;28;20081;-68
2022/03/21 02:09:50;;;;;;;21.73;12.33;;;;;;;;;;5059607;28;20021;-67
2022/03/21 02:12:15;;;;;;;22.80;12.33;;;;;;;;;;5061915;28;20077;-67
2022/03/21 02:14:41;;;;;;;22.43;11.30;;;;;;;;;;5061037;28;20035;-67
2022/03/21 02:17:06;;;;;;;20.43;11.10;;;;;;;;;;5061215;28;20529;-69
2022/03/21 02:19:34;;;;;;;19.97;11.17;;;;;;;;;;5061022;28;20032;-67
2022/03/21 02:22:18;;;;;;;21.83;11.27;;;;;;;;;;5060872;28;20040;-69
2022/03/21 02:24:43;;;;;;;24.50;10.70;;;;;;;;;;5060673;28;20036;-67
2022/03/21 02:27:09;;;;;;;20.63;10.40;;;;;;;;;;5060483;28;20059;-67
2022/03/21 02:29:36;;;;;;;20.63;11.03;;;;;;;;;;5060892;28;20025;-69
2022/03/21 02:32:01;;;;;;;19.77;10.33;;;;;;;;;;5057653;28;20027;-67
2022/03/21 02:34:27;;;;;;;17.93;10.20;;;;;;;;;;5061428;28;20036;-69
2022/03/21 02:36:54;;;;;;;20.60;11.00;;;;;;;;;;5060970;28;20039;-68
2022/03/21 02:39:20;;;;;;;20.40;10.40;;;;;;;;;;5060851;28;20029;-68
2022/03/21 02:41:45;;;;;;;17.70;10.50;;;;;;;;;;5063127;28;20027;-68
2022/03/21 02:44:10;;;;;;;19.03;10.77;;;;;;;;;;5060734;28;20032;-68
2022/03/21 02:46:36;;;;;;;19.20;10.87;;;;;;;;;;5060205;28;20020;-68
2022/03/21 02:49:01;;;;;;;19.83;10.90;;;;;;;;;;5060450;28;20032;-68
2022/03/21 02:51:28;;;;;;;20.77;11.20;;;;;;;;;;5060065;28;20087;-68
2022/03/21 02:53:53;;;;;;;21.13;11.47;;;;;;;;;;5061073;28;20024;-68
2022/03/21 02:56:20;;;;;;;21.87;11.50;;;;;;;;;;5060486;28;20028;-68
2022/03/21 02:58:45;;;;;;;20.33;11.27;;;;;;;;;;5065272;28;20043;-68
2022/03/21 03:01:15;;;;;;;20.10;11.07;;;;;;;;;;5057952;28;20096;-68
2022/03/21 03:03:41;;;;;;;19.90;10.67;;;;;;;;;;5060446;28;20059;-68
2022/03/21 03:06:06;;;;;;;18.80;11.17;;;;;;;;;;5060311;28;20106;-68
2022/03/21 03:08:32;;;;;;;21.17;11.80;;;;;;;;;;5060841;28;20028;-68
2022/03/21 03:10:57;;;;;;;20.00;11.13;;;;;;;;;;5059970;28;20025;-70
2022/03/21 03:13:22;;;;;;;22.30;11.47;;;;;;;;;;5060160;28;20033;-68
2022/03/21 03:15:48;;;;;;;21.63;11.17;;;;;;;;;;5060151;28;20024;-70
2022/03/21 03:18:13;;;;;;;20.73;11.13;;;;;;;;;;5059455;28;20562;-70
2022/03/21 03:20:48;;;;;;;19.70;10.37;;;;;;;;;;5059345;28;20514;-68
2022/03/21 03:23:13;;;;;;;24.33;11.33;;;;;;;;;;5058396;28;20025;-68
2022/03/21 03:25:39;;;;;;;18.70;10.70;;;;;;;;;;5060354;28;20032;-68
2022/03/21 03:28:04;;;;;;;18.73;10.90;;;;;;;;;;5055857;28;20035;-68
2022/03/21 03:30:29;;;;;;;22.17;10.97;;;;;;;;;;5055553;28;20164;-68
2022/03/21 03:32:55;;;;;;;19.33;10.67;;;;;;;;;;5052875;28;20032;-68
2022/03/21 03:35:20;;;;;;;19.50;10.57;;;;;;;;;;5054216;28;20035;-68
2022/03/21 03:37:45;;;;;;;20.80;10.60;;;;;;;;;;5052839;28;20086;-68
2022/03/21 03:40:12;;;;;;;22.47;10.67;;;;;;;;;;5052874;28;20036;-68
2022/03/21 03:42:37;;;;;;;18.60;10.50;;;;;;;;;;5053423;28;20028;-68
2022/03/21 03:45:03;;;;;;;19.37;10.73;;;;;;;;;;5051828;28;20021;-68
2022/03/21 03:47:28;;;;;;;20.20;10.13;;;;;;;;;;5054863;28;20032;-68
2022/03/21 03:49:53;;;;;;;21.37;10.90;;;;;;;;;;5053480;28;20119;-68
2022/03/21 03:52:18;;;;;;;16.40;9.83;;;;;;;;;;5056716;28;20099;-68
2022/03/21 03:54:44;;;;;;;20.57;11.27;;;;;;;;;;5056045;28;20149;-69
2022/03/21 03:57:11;;;;;;;20.17;10.53;;;;;;;;;;5059542;28;20491;-69
2022/03/21 03:59:36;;;;;;;21.30;10.93;;;;;;;;;;5060010;28;20028;-69
2022/03/21 04:02:02;;;;;;;19.00;10.33;;;;;;;;;;5059430;28;20063;-67
2022/03/21 04:04:27;;;;;;;18.30;10.37;;;;;;;;;;5053205;28;20447;-67
2022/03/21 04:06:53;;;;;;;25.13;11.50;;;;;;;;;;5048399;28;20066;-67
2022/03/21 04:09:18;;;;;;;21.10;11.73;;;;;;;;;;5059316;28;20108;-67
2022/03/21 04:11:43;;;;;;;22.57;11.47;;;;;;;;;;5058936;28;20100;-67
2022/03/21 04:14:09;;;;;;;23.27;10.80;;;;;;;;;;5060280;28;20057;-67
2022/03/21 04:16:36;;;;;;;22.20;11.53;;;;;;;;;;5057475;28;20660;-67
2022/03/21 04:19:02;;;;;;;27.90;11.87;;;;;;;;;;5059087;28;20035;-67
2022/03/21 04:21:27;;;;;;;22.03;11.13;;;;;;;;;;5059517;28;20100;-67
2022/03/21 04:23:52;;;;;;;21.73;11.67;;;;;;;;;;5056820;28;20025;-67
2022/03/21 04:26:17;;;;;;;24.53;12.20;;;;;;;;;;5059459;28;20501;-67
2022/03/21 04:28:43;;;;;;;22.53;12.03;;;;;;;;;;5054837;28;20420;-67
2022/03/21 04:31:08;;;;;;;22.43;12.70;;;;;;;;;;5054556;28;20118;-67
2022/03/21 04:33:33;;;;;;;23.60;12.70;;;;;;;;;;5059460;28;20047;-67
2022/03/21 04:35:59;;;;;;;22.10;11.90;;;;;;;;;;5062687;28;20099;-67
2022/03/21 04:38:24;;;;;;;22.83;11.50;;;;;;;;;;5060287;28;20693;-67
2022/03/21 04:40:50;;;;;;;25.97;11.97;;;;;;;;;;5059272;28;20028;-67
2022/03/21 04:43:17;;;;;;;22.27;11.97;;;;;;;;;;5059645;28;20030;-67
2022/03/21 04:45:43;;;;;;;22.43;11.67;;;;;;;;;;5062939;28;20599;-67
2022/03/21 04:48:09;;;;;;;24.27;13.40;;;;;;;;;;5062329;28;20025;-67
2022/03/21 04:50:34;;;;;;;31.00;15.13;;;;;;;;;;5062212;28;21535;-67
2022/03/21 04:52:59;;;;;;;39.57;19.03;;;;;;;;;;5061191;28;20024;-67
2022/03/21 04:55:25;;;;;;;37.90;19.73;;;;;;;;;;5061325;28;20024;-67
2022/03/21 04:57:50;;;;;;;26.27;15.40;;;;;;;;;;5052281;28;20050;-67
2022/03/21 05:00:16;;;;;;;24.23;14.33;;;;;;;;;;5055145;28;20488;-67
2022/03/21 05:02:41;;;;;;;26.33;13.10;;;;;;;;;;5052196;28;20417;-67
2022/03/21 05:05:08;;;;;;;21.47;12.80;;;;;;;;;;5050792;28;20032;-67
2022/03/21 05:07:38;;;;;;;24.20;13.00;;;;;;;;;;5045901;28;20469;-67
2022/03/21 05:10:03;;;;;;;22.10;11.37;;;;;;;;;;5051381;28;20777;-67
2022/03/21 05:12:29;;;;;;;20.83;11.27;;;;;;;;;;5048496;28;20024;-67
2022/03/21 05:14:54;;;;;;;20.50;10.73;;;;;;;;;;5045714;28;20037;-67
2022/03/21 05:17:19;;;;;;;19.90;10.10;;;;;;;;;;5056248;28;20024;-67
2022/03/21 05:19:44;;;;;;;23.00;10.30;;;;;;;;;;5062162;28;20472;-68
2022/03/21 05:22:10;;;;;;;21.73;10.53;;;;;;;;;;5062339;28;20407;-67
2022/03/21 05:35:52;;;;;;;22.37;10.67;;;;;;;;;;5061735;28;20026;-67
2022/03/21 05:38:20;;;;;;;21.63;10.90;;;;;;;;;;5062628;28;20035;-67
2022/03/21 05:40:45;;;;;;;17.43;10.03;;;;;;;;;;5062521;28;20044;-67
2022/03/21 05:43:11;;;;;;;20.83;10.83;;;;;;;;;;5063333;28;20112;-67
2022/03/21 05:45:36;;;;;;;19.20;10.53;;;;;;;;;;5062057;28;20366;-67
2022/03/21 05:50:45;;;;;;;21.40;10.60;;;;;;;;;;5061353;28;20055;-67
2022/03/21 05:53:10;;;;;;;24.77;11.40;;;;;;;;;;5060141;28;20040;-67
2022/03/21 05:55:36;;;;;;;18.47;10.30;;;;;;;;;;5060131;28;20040;-67
2022/03/21 05:58:01;;;;;;;20.33;11.13;;;;;;;;;;5062079;28;20103;-67
2022/03/21 06:00:27;;;;;;;38.43;19.07;;;;;;;;;;5061834;28;20717;-67
2022/03/21 06:02:53;;;;;;;32.37;15.33;;;;;;;;;;5060151;28;20056;-67
2022/03/21 06:05:19;;;;;;;28.47;13.83;;;;;;;;;;5061555;28;20469;-67
2022/03/21 06:07:45;;;;;;;20.63;11.30;;;;;;;;;;5061931;28;20021;-67
2022/03/21 06:10:10;;;;;;;17.90;10.20;;;;;;;;;;5061605;28;20104;-67
2022/03/21 06:12:36;;;;;;;21.50;11.37;;;;;;;;;;5062096;28;20869;-67
2022/03/21 06:15:02;;;;;;;25.37;12.17;;;;;;;;;;5061643;28;20031;-67
2022/03/21 06:17:28;;;;;;;22.37;11.70;;;;;;;;;;5065985;28;20728;-67
2022/03/21 06:19:53;;;;;;;19.97;11.00;;;;;;;;;;5069563;28;20084;-67
2022/03/21 06:22:18;;;;;;;18.40;11.03;;;;;;;;;;5061538;28;20492;-67
2022/03/21 06:24:43;;;;;;;21.33;11.50;;;;;;;;;;5061148;28;20122;-67
2022/03/21 06:27:08;;;;;;;21.93;13.03;;;;;;;;;;5060572;28;20398;-67
2022/03/21 06:29:34;;;;;;;22.27;12.63;;;;;;;;;;5061139;28;20102;-67
2022/03/21 06:31:59;;;;;;;20.60;10.73;;;;;;;;;;5061877;28;20113;-67
2022/03/21 06:34:24;;;;;;;20.40;11.83;;;;;;;;;;5060531;28;20031;-67
2022/03/21 06:36:50;;;;;;;19.53;10.47;;;;;;;;;;5059872;28;20027;-67
2022/03/21 06:39:15;;;;;;;25.03;11.00;;;;;;;;;;5061999;28;20039;-67
2022/03/21 06:41:44;;;;;;;19.43;10.30;;;;;;;;;;5062254;28;20507;-67
2022/03/21 06:44:09;;;;;;;18.13;10.67;;;;;;;;;;5061574;28;20062;-67
2022/03/21 06:46:35;;;;;;;19.17;10.70;;;;;;;;;;5061437;28;20028;-67
2022/03/21 06:49:00;;;;;;;18.30;10.40;;;;;;;;;;5061614;28;20086;-67
2022/03/21 06:51:25;;;;;;;20.73;10.67;;;;;;;;;;5062057;28;20032;-67
2022/03/21 06:53:51;;;;;;;22.53;11.00;;;;;;;;;;5060943;28;20066;-67
2022/03/21 06:56:16;;;;;;;19.20;10.77;;;;;;;;;;5061198;28;20052;-67
2022/03/21 06:58:41;;;;;;;19.47;11.30;;;;;;;;;;5062054;28;20024;-67
2022/03/21 07:01:06;;;;;;;19.50;10.53;;;;;;;;;;5061394;28;20425;-67
2022/03/21 07:03:32;;;;;;;20.03;10.73;;;;;;;;;;5062057;28;20028;-67
2022/03/21 07:05:58;;;;;;;20.47;11.07;;;;;;;;;;5061241;28;20033;-67
2022/03/21 07:08:24;;;;;;;18.30;10.30;;;;;;;;;;5061587;28;20551;-67
2022/03/21 07:10:49;;;;;;;18.53;10.17;;;;;;;;;;5075430;28;20038;-67
2022/03/21 07:13:15;;;;;;;18.40;10.70;;;;;;;;;;5082295;28;20400;-67
2022/03/21 07:15:41;;;;;;;21.27;11.03;;;;;;;;;;5066306;28;20454;-67
2022/03/21 07:18:06;;;;;;;19.93;11.00;;;;;;;;;;5062001;28;20020;-67
2022/03/21 07:20:31;;;;;;;20.23;11.60;;;;;;;;;;5061386;28;20036;-67
2022/03/21 07:22:57;;;;;;;23.63;11.00;;;;;;;;;;5060795;28;20103;-67
2022/03/21 07:25:23;;;;;;;18.83;11.17;;;;;;;;;;5060631;28;20021;-67
2022/03/21 07:27:49;;;;;;;18.47;10.90;;;;;;;;;;5061619;28;20054;-67
2022/03/21 07:30:14;;;;;;;20.07;11.00;;;;;;;;;;5061292;28;20417;-67
2022/03/21 07:32:40;;;;;;;18.50;10.00;;;;;;;;;;5061319;28;20051;-67
2022/03/21 07:35:07;;;;;;;20.80;11.70;;;;;;;;;;5065562;28;20028;-67
2022/03/21 07:37:53;;;;;;;21.90;11.37;;;;;;;;;;5061824;28;20461;-67
2022/03/21 07:40:19;;;;;;;20.50;10.90;;;;;;;;;;5060901;28;20021;-67
2022/03/21 07:42:44;;;;;;;21.90;11.87;;;;;;;;;;5061454;28;20044;-67
2022/03/21 07:47:59;;;;;;;18.60;11.97;;;;;;;;;;5032165;28;20196;-67
2022/03/21 07:50:25;;;;;;;19.37;10.70;;;;;;;;;;5061067;28;20157;-67
2022/03/21 07:52:54;;;;;;;20.13;10.87;;;;;;;;;;5061073;28;20021;-67
2022/03/21 07:55:19;;;;;;;16.80;10.50;;;;;;;;;;5061058;28;20071;-67
2022/03/21 07:57:45;;;;;;;21.63;12.07;;;;;;;;;;5061238;28;20056;-67
2022/03/21 08:00:11;;;;;;;18.33;11.17;;;;;;;;;;5061092;28;20027;-67
2022/03/21 08:02:37;;;;;;;19.33;11.80;;;;;;;;;;5060717;28;20044;-67
2022/03/21 08:05:04;;;;;;;16.67;10.90;;;;;;;;;;5060993;28;20452;-67
2022/03/21 08:07:29;;;;;;;20.90;10.77;;;;;;;;;;5063612;28;20469;-67
2022/03/21 08:09:55;;;;;;;18.70;11.13;;;;;;;;;;5066908;28;20035;-69
2022/03/21 08:12:20;;;;;;;17.83;11.50;;;;;;;;;;5065600;28;20024;-69
2022/03/21 08:14:45;;;;;;;21.50;11.63;;;;;;;;;;5064995;28;20028;-69
2022/03/21 08:17:10;;;;;;;22.33;12.13;;;;;;;;;;5065688;28;20025;-69
2022/03/21 08:19:36;;;;;;;18.03;11.27;;;;;;;;;;5065186;28;20501;-67
2022/03/21 08:22:04;;;;;;;19.13;10.90;;;;;;;;;;5071609;28;20027;-67
2022/03/21 08:24:33;;;;;;;19.27;11.90;;;;;;;;;;5071510;28;20119;-67
2022/03/21 08:26:58;;;;;;;19.90;11.77;;;;;;;;;;5065072;28;20066;-69
2022/03/21 08:29:24;;;;;;;17.55;11.75;;;;;;;;;;5064919;28;20056;-68
2022/03/21 08:31:49;;;;;;;19.95;11.85;;;;;;;;;;5065283;28;20078;-68
2022/03/21 08:34:14;;;;;;;18.67;11.25;;;;;;;;;;5064943;28;20036;-69
2022/03/21 08:36:39;;;;;;;19.75;11.85;;;;;;;;;;5065461;28;20035;-69
2022/03/21 08:39:05;;;;;;;17.00;11.57;;;;;;;;;;5065033;28;20500;-70
2022/03/21 08:41:30;;;;;;;16.70;11.50;;;;;;;;;;5064828;28;20039;-69
2022/03/21 08:43:55;;;;;;;16.80;10.90;;;;;;;;;;5064876;28;20652;-69
2022/03/21 08:46:21;;;;;;;20.02;12.25;;;;;;;;;;5064891;28;20100;-69
2022/03/21 08:51:31;;;;;;;16.90;11.10;;;;;;;;;;5064715;28;20026;-69
2022/03/21 08:53:56;;;;;;;17.77;11.48;;;;;;;;;;5064470;28;20028;-69
2022/03/21 08:56:21;;;;;;;17.70;10.60;;;;;;;;;;5064922;28;20039;-69
2022/03/21 08:58:47;;;;;;;22.10;12.35;;;;;;;;;;5064991;28;20048;-69
2022/03/21 09:01:12;;;;;;;20.63;11.48;;;;;;;;;;5064058;28;20638;-69
2022/03/21 09:03:37;;;;;;;17.40;12.05;;;;;;;;;;5073431;28;20727;-69
2022/03/21 09:06:02;;;;;;;18.80;11.35;;;;;;;;;;5066530;28;20027;-69
2022/03/21 09:08:28;;;;;;;18.83;11.02;;;;;;;;;;5063889;28;20029;-69
2022/03/21 09:10:53;;;;;;;19.13;11.63;;;;;;;;;;5064139;28;20024;-69
2022/03/21 09:13:19;;;;;;;18.48;11.82;;;;;;;;;;5063989;28;20036;-69
2022/03/21 09:15:44;;;;;;;17.98;12.30;;;;;;;;;;5064267;28;20037;-69
2022/03/21 09:18:09;;;;;;;19.25;12.02;;;;;;;;;;5063853;28;20032;-69
2022/03/21 09:20:35;;;;;;;23.13;12.10;;;;;;;;;;5064081;28;20028;-69
2022/03/21 09:23:00;;;;;;;17.73;11.32;;;;;;;;;;5064555;28;20226;-69
2022/03/21 09:25:25;;;;;;;20.48;12.60;;;;;;;;;;5063877;28;20024;-69
2022/03/21 09:27:51;;;;;;;17.70;11.77;;;;;;;;;;5064228;28;20412;-69
2022/03/21 09:30:16;;;;;;;21.13;12.70;;;;;;;;;;5064010;28;20020;-69
2022/03/21 09:32:42;;;;;;;19.85;13.07;;;;;;;;;;5064032;28;20052;-69
2022/03/21 09:35:07;;;;;;;17.48;11.65;;;;;;;;;;5064077;28;20027;-69
2022/03/21 09:37:33;;;;;;;20.42;13.00;;;;;;;;;;5064064;28;20090;-69
2022/03/21 09:39:58;;;;;;;20.67;13.65;;;;;;;;;;5063410;28;20024;-69
2022/03/21 09:42:24;;;;;;;19.70;12.07;;;;;;;;;;5067203;28;20081;-69
2022/03/21 09:44:52;;;;;;;20.60;12.82;;;;;;;;;;5075824;28;20021;-69
2022/03/21 09:50:04;;;;;;;23.15;13.27;;;;;;;;;;5063596;28;20106;-69
2022/03/21 09:52:30;;;;;;;19.48;13.00;;;;;;;;;;5063876;28;20432;-69
2022/03/21 09:54:55;;;;;;;19.88;12.90;;;;;;;;;;5063820;28;20094;-68
2022/03/21 09:57:20;;;;;;;19.88;13.10;;;;;;;;;;5063573;28;20043;-68
2022/03/21 09:59:46;;;;;;;21.33;13.50;;;;;;;;;;5063419;28;20046;-68
2022/03/21 10:02:21;;;;;;;18.15;13.02;;;;;;;;;;5063057;28;20453;-68
2022/03/21 10:04:46;;;;;;;20.27;13.20;;;;;;;;;;5062958;28;20035;-68
2022/03/21 10:07:12;;;;;;;20.38;13.45;;;;;;;;;;5063354;28;20024;-69
2022/03/21 10:09:38;;;;;;;19.05;13.25;;;;;;;;;;5062865;28;20025;-67
2022/03/21 10:12:08;;;;;;;20.88;13.13;;;;;;;;;;5063449;28;20028;-68
2022/03/21 10:14:37;;;;;;;20.23;13.90;;;;;;;;;;5063018;28;20089;-67
2022/03/21 10:17:05;;;;;;;19.48;13.57;;;;;;;;;;5071150;28;20023;-67
2022/03/21 10:19:45;;;;;;;23.05;14.32;;;;;;;;;;5069962;28;20119;-67
2022/03/21 10:22:11;;;;;;;22.50;15.07;;;;;;;;;;5063407;28;20103;-67
2022/03/21 10:24:38;;;;;;;22.00;14.00;;;;;;;;;;5062807;28;20036;-67
2022/03/21 10:27:04;;;;;;;20.50;14.18;;;;;;;;;;5063485;28;20115;-67
2022/03/21 10:29:31;;;;;;;23.10;14.50;;;;;;;;;;5061603;28;20817;-67
2022/03/21 10:31:56;;;;;;;23.73;14.60;;;;;;;;;;5062801;28;20031;-67
2022/03/21 10:34:23;;;;;;;20.58;13.65;;;;;;;;;;5062611;28;20029;-67
2022/03/21 10:37:00;;;;;;;25.23;14.27;;;;;;;;;;5062741;28;20433;-67
2022/03/21 10:39:26;;;;;;;21.75;14.95;;;;;;;;;;5062189;28;20035;-67
2022/03/21 10:41:58;;;;;;;23.27;14.50;;;;;;;;;;5062934;28;20495;-67
2022/03/21 10:44:24;;;;;;;25.05;15.15;;;;;;;;;;5062472;28;20039;-67
2022/03/21 10:46:53;;;;;;;22.40;14.25;;;;;;;;;;5062708;28;20024;-67
2022/03/21 10:49:26;;;;;;;22.40;14.87;;;;;;;;;;5062357;28;20025;-67
2022/03/21 10:51:55;;;;;;;25.60;14.98;;;;;;;;;;5062368;28;20021;-67
2022/03/21 10:54:36;;;;;;;25.03;15.73;;;;;;;;;;5062039;28;20413;-67
2022/03/21 10:57:03;;;;;;;24.23;14.63;;;;;;;;;;5062376;28;20058;-67
2022/03/21 10:59:28;;;;;;;23.98;15.05;;;;;;;;;;5061220;28;20086;-67
2022/03/21 11:02:09;;;;;;;24.70;14.93;;;;;;;;;;5061668;28;20530;-67
2022/03/21 11:04:34;;;;;;;22.33;15.27;;;;;;;;;;5068277;28;20035;-67
2022/03/21 11:07:00;;;;;;;23.90;15.65;;;;;;;;;;5062174;28;20021;-67
2022/03/21 11:09:25;;;;;;;34.83;16.85;;;;;;;;;;5061714;28;20029;-67
2022/03/21 11:11:51;;;;;;;25.77;16.38;;;;;;;;;;5062357;28;20028;-67
2022/03/21 11:14:16;;;;;;;23.25;15.77;;;;;;;;;;5061850;28;20137;-67
2022/03/21 11:16:41;;;;;;;26.92;15.73;;;;;;;;;;5062647;28;20067;-67
2022/03/21 11:19:07;;;;;;;24.25;15.38;;;;;;;;;;5061414;28;20035;-67
2022/03/21 11:21:33;;;;;;;26.30;15.75;;;;;;;;;;5061939;28;20031;-67
2022/03/21 11:23:59;;;;;;;23.77;15.63;;;;;;;;;;5062083;28;20624;-67
2022/03/21 11:26:24;;;;;;;25.88;15.93;;;;;;;;;;5061925;28;20230;-67
2022/03/21 11:28:49;;;;;;;24.83;16.23;;;;;;;;;;5061738;28;20025;-67
2022/03/21 11:31:27;;;;;;;25.42;16.52;;;;;;;;;;5060810;28;20021;-67
2022/03/21 11:34:11;;;;;;;25.00;16.33;;;;;;;;;;5061477;28;20033;-67
2022/03/21 11:36:49;;;;;;;25.60;16.60;;;;;;;;;;5045820;28;20028;-67
2022/03/21 11:39:14;;;;;;;25.63;15.57;;;;;;;;;;5061720;28;20527;-67
2022/03/21 11:41:55;;;;;;;26.50;16.17;;;;;;;;;;5061742;28;20028;-67
2022/03/21 11:44:20;;;;;;;26.40;16.80;;;;;;;;;;5061591;28;20035;-67
2022/03/21 11:46:47;;;;;;;28.13;17.02;;;;;;;;;;5072723;28;20416;-67
2022/03/21 11:49:37;;;;;;;26.15;16.80;;;;;;;;;;5078020;28;21144;-67
2022/03/21 11:52:02;;;;;;;25.80;16.52;;;;;;;;;;5061712;28;20028;-67
2022/03/21 11:54:35;;;;;;;26.70;17.45;;;;;;;;;;5043246;28;20020;-67
2022/03/21 11:57:07;;;;;;;30.00;17.30;;;;;;;;;;5061280;28;20043;-67
2022/03/21 11:59:35;;;;;;;25.67;16.75;;;;;;;;;;5061323;28;20483;-67
2022/03/21 12:02:22;;;;;;;26.83;17.42;;;;;;;;;;5061098;28;20419;-67
2022/03/21 12:04:57;;;;;;;26.02;17.50;;;;;;;;;;4971458;28;20162;-67
2022/03/21 12:07:23;;;;;;;29.30;17.00;;;;;;;;;;4962327;28;20031;-67
2022/03/21 12:09:49;;;;;;;30.45;17.48;;;;;;;;;;4971639;28;20200;-67
2022/03/21 12:12:15;;;;;;;25.63;16.38;;;;;;;;;;4959687;28;20046;-67
2022/03/21 12:14:42;;;;;;;30.92;17.25;;;;;;;;;;4959331;28;20107;-67
2022/03/21 12:17:10;;;;;;;27.35;16.95;;;;;;;;;;4966488;28;20034;-67
2022/03/21 12:22:27;;;;;;;30.35;17.33;;;;;;;;;;4959762;28;20035;-68
2022/03/21 12:24:52;;;;;;;26.35;17.65;;;;;;;;;;4959605;28;20042;-67
2022/03/21 12:27:36;;;;;;;30.70;17.83;;;;;;;;;;4959709;28;20031;-67
2022/03/21 12:30:38;;;;;;;28.58;18.33;;;;;;;;;;4953345;28;20062;-68
2022/03/21 12:33:15;;;;;;;28.30;17.55;;;;;;;;;;4959638;28;20055;-69
2022/03/21 12:35:44;;;;;;;27.52;17.88;;;;;;;;;;4959543;28;20566;-70
2022/03/21 12:38:11;;;;;;;28.65;17.70;;;;;;;;;;4966386;28;20415;-70
2022/03/21 12:41:00;;;;;;;29.33;17.55;;;;;;;;;;4965334;28;20873;-70
2022/03/21 12:43:34;;;;;;;26.75;17.30;;;;;;;;;;5061829;28;20024;-70
2022/03/21 12:46:06;;;;;;;28.88;19.25;;;;;;;;;;5061228;28;20056;-71
2022/03/21 12:48:33;;;;;;;25.52;17.35;;;;;;;;;;5061371;28;20307;-70
2022/03/21 12:50:59;;;;;;;31.35;18.92;;;;;;;;;;5060725;28;20024;-71
2022/03/21 12:53:34;;;;;;;27.15;18.42;;;;;;;;;;5062952;28;20032;-70
2022/03/21 12:56:00;;;;;;;25.90;16.90;;;;;;;;;;5064493;28;20020;-70
2022/03/21 12:58:25;;;;;;;27.20;17.67;;;;;;;;;;5064502;28;20021;-71
2022/03/21 13:00:51;;;;;;;30.17;18.20;;;;;;;;;;5064730;28;20033;-71
2022/03/21 13:03:17;;;;;;;28.00;18.95;;;;;;;;;;5079919;28;20563;-71
2022/03/21 13:11:25;;;;;;;26.75;18.58;;;;;;;;;;5064600;28;20039;-70
2022/03/21 13:13:53;;;;;;;27.30;18.30;;;;;;;;;;5064366;28;20666;-71
2022/03/21 13:16:19;;;;;;;28.23;17.55;;;;;;;;;;5064407;28;20111;-71
2022/03/21 13:18:44;;;;;;;31.42;18.23;;;;;;;;;;5064504;28;20201;-71
2022/03/21 13:21:09;;;;;;;29.33;19.25;;;;;;;;;;5064294;28;20024;-71
2022/03/21 13:23:35;;;;;;;25.65;17.55;;;;;;;;;;5064322;28;20101;-71
2022/03/21 13:26:11;;;;;;;24.67;18.23;;;;;;;;;;5064248;28;20016;-71
2022/03/21 13:28:38;;;;;;;27.00;17.73;;;;;;;;;;5063687;28;20492;-71
2022/03/21 13:31:07;;;;;;;25.08;16.95;;;;;;;;;;5063867;28;20096;-71
2022/03/21 13:33:33;;;;;;;26.98;17.95;;;;;;;;;;5063811;28;20052;-70
2022/03/21 13:35:59;;;;;;;25.33;18.42;;;;;;;;;;5065113;28;20040;-72
2022/03/21 13:38:25;;;;;;;27.33;18.20;;;;;;;;;;5063678;28;20712;-72
2022/03/21 13:40:51;;;;;;;24.58;17.75;;;;;;;;;;5078050;28;20028;-72
2022/03/21 13:43:16;;;;;;;28.20;18.67;;;;;;;;;;5083965;28;20028;-72
2022/03/21 13:45:42;;;;;;;28.90;18.23;;;;;;;;;;5068149;28;20024;-72
2022/03/21 13:48:07;;;;;;;26.33;18.10;;;;;;;;;;5062550;28;20016;-72
2022/03/21 13:50:38;;;;;;;27.27;18.60;;;;;;;;;;5062007;28;20029;-72
2022/03/21 13:53:04;;;;;;;27.65;18.38;;;;;;;;;;5063691;28;20566;-72
2022/03/21 13:55:29;;;;;;;26.70;18.45;;;;;;;;;;5063374;28;20028;-72
2022/03/21 13:57:55;;;;;;;27.17;17.65;;;;;;;;;;5063265;28;20012;-72
2022/03/21 14:00:36;;;;;;;27.55;17.27;;;;;;;;;;5064379;28;20020;-72
2022/03/21 14:03:02;;;;;;;;;;;;;;;;;;5064941;28;20098;-71
2022/03/21 14:05:28;;;;;;;28.73;18.80;;;;;;;;;;5063872;28;20440;-71
2022/03/21 14:08:07;;;;;;;25.27;16.73;;;;;;;;;;5063584;28;20113;-71
2022/03/21 14:10:37;;;;;;;29.08;18.17;;;;;;;;;;5063523;28;20107;-71
2022/03/21 14:13:02;;;;;;;26.35;18.35;;;;;;;;;;5063251;28;20025;-72
2022/03/21 14:15:28;;;;;;;28.80;18.65;;;;;;;;;;5063278;28;20043;-72
2022/03/21 14:17:53;;;;;;;27.48;19.20;;;;;;;;;;5044924;28;20809;-72
2022/03/21 14:20:18;;;;;;;27.92;18.48;;;;;;;;;;5062716;28;20082;-71
2022/03/21 14:22:45;;;;;;;26.13;18.05;;;;;;;;;;5063096;28;20025;-72
2022/03/21 14:27:54;;;;;;;25.25;18.02;;;;;;;;;;5073523;28;20171;-72
2022/03/21 14:30:20;;;;;;;26.50;18.10;;;;;;;;;;5062600;28;20074;-72
2022/03/21 14:32:46;;;;;;;27.17;17.98;;;;;;;;;;5063031;28;20020;-72
2022/03/21 14:35:11;;;;;;;24.20;17.48;;;;;;;;;;5062733;28;20645;-72
2022/03/21 14:37:36;;;;;;;26.95;18.38;;;;;;;;;;5062831;28;20032;-72
2022/03/21 14:40:02;;;;;;;27.17;18.08;;;;;;;;;;5062153;28;20479;-72
2022/03/21 14:42:27;;;;;;;28.63;18.00;;;;;;;;;;5062680;28;20033;-72
2022/03/21 14:44:53;;;;;;;25.27;17.90;;;;;;;;;;5062430;28;20112;-73
2022/03/21 14:47:18;;;;;;;25.30;17.92;;;;;;;;;;5062119;28;20025;-72
2022/03/21 14:49:44;;;;;;;27.40;18.23;;;;;;;;;;5062305;28;20060;-72
2022/03/21 14:52:09;;;;;;;30.00;18.48;;;;;;;;;;5061810;28;20073;-72